sensor_id;sensor_type;location;lat;lon;timestamp;pressure;altitude;pressure_sealevel;temperature;humidity
66176;BME280;52977;44.816;20.538;2022-11-03T00:01:06;100559.34;;;11.93;100.00
66176;BME280;52977;44.816;20.538;2022-11-03T00:03:32;100607.78;;;12.29;100.00
66176;BME280;52977;44.816;20.538;2022-11-03T00:05:58;100605.97;;;12.25;100.00
66176;BME280;52977;44.816;20.538;2022-11-03T00:08:34;100618.13;;;12.33;100.00
66176;BME280;52977;44.816;20.538;2022-11-03T00:11:12;100608.38;;;12.26;100.00
66176;BME280;52977;44.816;20.538;2022-11-03T00:13:41;100623.00;;;11.99;100.00
66176;BME280;52977;44.816;20.538;2022-11-03T00:16:10;100606.50;;;11.90;100.00
66176;BME280;52977;44.816;20.538;2022-11-03T00:18:37;100614.06;;;12.07;100.00
66176;BME280;52977;44.816;20.538;2022-11-03T00:21:06;100603.13;;;12.07;100.00
66176;BME280;52977;44.816;20.538;2022-11-03T00:23:35;100612.44;;;12.06;100.00
66176;BME280;52977;44.816;20.538;2022-11-03T00:26:13;100612.31;;;12.11;100.00
66176;BME280;52977;44.816;20.538;2022-11-03T00:28:41;100609.34;;;12.22;100.00
66176;BME280;52977;44.816;20.538;2022-11-03T00:31:10;100570.28;;;12.07;100.00
66176;BME280;52977;44.816;20.538;2022-11-03T00:33:38;100541.13;;;11.89;100.00
66176;BME280;52977;44.816;20.538;2022-11-03T00:36:06;100598.94;;;12.33;100.00
66176;BME280;52977;44.816;20.538;2022-11-03T00:38:33;100559.97;;;12.04;100.00
66176;BME280;52977;44.816;20.538;2022-11-03T00:41:01;100589.63;;;12.34;100.00
66176;BME280;52977;44.816;20.538;2022-11-03T00:43:28;100590.63;;;12.38;100.00
66176;BME280;52977;44.816;20.538;2022-11-03T00:45:55;100580.16;;;12.40;100.00
66176;BME280;52977;44.816;20.538;2022-11-03T00:48:22;100544.38;;;12.13;100.00
66176;BME280;52977;44.816;20.538;2022-11-03T00:51:06;100583.38;;;12.42;100.00
66176;BME280;52977;44.816;20.538;2022-11-03T00:53:35;100589.78;;;12.37;100.00
66176;BME280;52977;44.816;20.538;2022-11-03T00:56:02;100526.72;;;11.97;100.00
66176;BME280;52977;44.816;20.538;2022-11-03T00:58:29;100586.81;;;12.25;100.00
66176;BME280;52977;44.816;20.538;2022-11-03T01:01:03;100546.13;;;12.09;100.00
66176;BME280;52977;44.816;20.538;2022-11-03T01:03:31;100569.47;;;12.29;100.00
66176;BME280;52977;44.816;20.538;2022-11-03T01:05:57;100575.78;;;12.39;100.00
66176;BME280;52977;44.816;20.538;2022-11-03T01:08:41;100570.31;;;12.39;100.00
66176;BME280;52977;44.816;20.538;2022-11-03T01:11:16;100545.25;;;12.23;100.00
66176;BME280;52977;44.816;20.538;2022-11-03T01:14:01;100517.97;;;12.09;100.00
66176;BME280;52977;44.816;20.538;2022-11-03T01:16:28;100566.13;;;12.41;100.00
66176;BME280;52977;44.816;20.538;2022-11-03T01:18:55;100528.16;;;12.17;100.00
66176;BME280;52977;44.816;20.538;2022-11-03T01:21:21;100565.78;;;12.34;100.00
66176;BME280;52977;44.816;20.538;2022-11-03T01:23:48;100552.88;;;12.35;100.00
66176;BME280;52977;44.816;20.538;2022-11-03T01:26:14;100559.56;;;12.42;100.00
66176;BME280;52977;44.816;20.538;2022-11-03T01:28:44;100553.44;;;12.45;100.00
66176;BME280;52977;44.816;20.538;2022-11-03T01:31:18;100543.13;;;12.42;100.00
66176;BME280;52977;44.816;20.538;2022-11-03T01:33:45;100547.31;;;12.17;100.00
66176;BME280;52977;44.816;20.538;2022-11-03T01:36:13;100549.69;;;12.10;100.00
66176;BME280;52977;44.816;20.538;2022-11-03T01:38:40;100541.72;;;12.00;100.00
66176;BME280;52977;44.816;20.538;2022-11-03T01:41:26;100539.53;;;11.88;100.00
66176;BME280;52977;44.816;20.538;2022-11-03T01:49:28;100537.94;;;11.73;100.00
66176;BME280;52977;44.816;20.538;2022-11-03T01:52:15;100533.00;;;11.75;100.00
66176;BME280;52977;44.816;20.538;2022-11-03T01:54:47;100533.75;;;11.89;100.00
66176;BME280;52977;44.816;20.538;2022-11-03T01:57:14;100547.09;;;11.91;100.00
66176;BME280;52977;44.816;20.538;2022-11-03T01:59:42;100562.25;;;11.74;100.00
66176;BME280;52977;44.816;20.538;2022-11-03T02:02:10;100528.06;;;11.63;100.00
66176;BME280;52977;44.816;20.538;2022-11-03T02:04:37;100555.09;;;11.87;100.00
66176;BME280;52977;44.816;20.538;2022-11-03T02:07:10;100492.56;;;11.49;100.00
66176;BME280;52977;44.816;20.538;2022-11-03T02:09:39;100507.84;;;11.50;100.00
66176;BME280;52977;44.816;20.538;2022-11-03T02:12:06;100563.16;;;11.84;100.00
66176;BME280;52977;44.816;20.538;2022-11-03T02:14:41;100543.16;;;11.83;100.00
66176;BME280;52977;44.816;20.538;2022-11-03T02:17:10;100552.50;;;11.96;100.00
66176;BME280;52977;44.816;20.538;2022-11-03T02:19:54;100541.63;;;11.91;100.00
66176;BME280;52977;44.816;20.538;2022-11-03T02:23:09;100516.53;;;11.52;100.00
66176;BME280;52977;44.816;20.538;2022-11-03T02:25:45;100547.81;;;11.96;100.00
66176;BME280;52977;44.816;20.538;2022-11-03T02:28:17;100540.22;;;11.93;100.00
66176;BME280;52977;44.816;20.538;2022-11-03T02:30:49;100547.06;;;12.05;100.00
66176;BME280;52977;44.816;20.538;2022-11-03T02:36:27;100532.91;;;11.66;100.00
66176;BME280;52977;44.816;20.538;2022-11-03T02:38:59;100539.25;;;11.75;100.00
66176;BME280;52977;44.816;20.538;2022-11-03T02:41:29;100539.78;;;11.63;100.00
66176;BME280;52977;44.816;20.538;2022-11-03T02:43:59;100483.97;;;11.42;100.00
66176;BME280;52977;44.816;20.538;2022-11-03T02:46:26;100526.38;;;11.76;100.00
66176;BME280;52977;44.816;20.538;2022-11-03T02:48:55;100557.81;;;12.01;100.00
66176;BME280;52977;44.816;20.538;2022-11-03T02:51:23;100549.63;;;12.01;100.00
66176;BME280;52977;44.816;20.538;2022-11-03T02:54:06;100565.13;;;12.06;100.00
66176;BME280;52977;44.816;20.538;2022-11-03T02:56:39;100528.44;;;11.93;100.00
66176;BME280;52977;44.816;20.538;2022-11-03T02:59:11;100518.75;;;11.64;100.00
66176;BME280;52977;44.816;20.538;2022-11-03T03:01:45;100564.56;;;11.81;100.00
66176;BME280;52977;44.816;20.538;2022-11-03T03:04:47;100543.34;;;11.64;100.00
66176;BME280;52977;44.816;20.538;2022-11-03T03:07:18;100560.63;;;11.73;100.00
66176;BME280;52977;44.816;20.538;2022-11-03T03:12:21;100519.44;;;11.33;100.00
66176;BME280;52977;44.816;20.538;2022-11-03T03:14:49;100547.44;;;11.53;100.00
66176;BME280;52977;44.816;20.538;2022-11-03T03:17:33;100568.19;;;11.54;100.00
66176;BME280;52977;44.816;20.538;2022-11-03T03:25:37;100561.25;;;11.70;100.00
66176;BME280;52977;44.816;20.538;2022-11-03T03:28:09;100572.47;;;11.83;100.00
66176;BME280;52977;44.816;20.538;2022-11-03T03:30:37;100567.41;;;11.76;100.00
66176;BME280;52977;44.816;20.538;2022-11-03T03:33:07;100559.75;;;11.64;100.00
66176;BME280;52977;44.816;20.538;2022-11-03T03:35:36;100562.88;;;11.71;100.00
66176;BME280;52977;44.816;20.538;2022-11-03T03:38:08;100546.50;;;11.57;100.00
66176;BME280;52977;44.816;20.538;2022-11-03T03:40:37;100566.75;;;11.56;100.00
66176;BME280;52977;44.816;20.538;2022-11-03T03:43:07;100568.19;;;11.54;100.00
66176;BME280;52977;44.816;20.538;2022-11-03T03:45:36;100570.28;;;11.71;100.00
66176;BME280;52977;44.816;20.538;2022-11-03T03:48:04;100539.69;;;11.32;100.00
66176;BME280;52977;44.816;20.538;2022-11-03T03:50:34;100536.44;;;11.30;100.00
66176;BME280;52977;44.816;20.538;2022-11-03T03:53:04;100546.97;;;11.37;100.00
66176;BME280;52977;44.816;20.538;2022-11-03T03:55:39;100582.13;;;11.66;100.00
66176;BME280;52977;44.816;20.538;2022-11-03T03:58:06;100530.13;;;11.43;100.00
66176;BME280;52977;44.816;20.538;2022-11-03T04:00:32;100476.16;;;11.13;100.00
66176;BME280;52977;44.816;20.538;2022-11-03T04:02:58;100531.38;;;11.37;100.00
66176;BME280;52977;44.816;20.538;2022-11-03T04:05:25;100580.41;;;11.70;100.00
66176;BME280;52977;44.816;20.538;2022-11-03T04:07:51;100578.06;;;11.63;100.00
66176;BME280;52977;44.816;20.538;2022-11-03T04:10:21;100571.03;;;11.49;100.00
66176;BME280;52977;44.816;20.538;2022-11-03T04:12:48;100571.44;;;11.56;100.00
66176;BME280;52977;44.816;20.538;2022-11-03T04:15:32;100569.19;;;11.58;100.00
66176;BME280;52977;44.816;20.538;2022-11-03T04:18:13;100570.88;;;11.68;100.00
66176;BME280;52977;44.816;20.538;2022-11-03T04:20:58;100574.81;;;11.75;100.00
66176;BME280;52977;44.816;20.538;2022-11-03T04:23:42;100567.56;;;11.71;100.00
66176;BME280;52977;44.816;20.538;2022-11-03T04:26:14;100469.38;;;11.10;100.00
66176;BME280;52977;44.816;20.538;2022-11-03T04:28:41;100528.47;;;11.56;100.00
66176;BME280;52977;44.816;20.538;2022-11-03T04:31:12;100521.59;;;11.59;100.00
66176;BME280;52977;44.816;20.538;2022-11-03T04:33:39;100558.06;;;11.91;100.00
66176;BME280;52977;44.816;20.538;2022-11-03T04:36:20;100521.97;;;11.89;100.00
66176;BME280;52977;44.816;20.538;2022-11-03T04:38:47;100537.59;;;12.11;100.00
66176;BME280;52977;44.816;20.538;2022-11-03T04:41:24;100534.44;;;12.18;100.00
66176;BME280;52977;44.816;20.538;2022-11-03T04:43:54;100553.13;;;12.16;100.00
66176;BME280;52977;44.816;20.538;2022-11-03T04:46:27;100555.94;;;11.88;100.00
66176;BME280;52977;44.816;20.538;2022-11-03T04:48:57;100548.94;;;11.82;100.00
66176;BME280;52977;44.816;20.538;2022-11-03T04:51:28;100528.00;;;11.77;100.00
66176;BME280;52977;44.816;20.538;2022-11-03T04:54:20;100403.69;;;11.15;100.00
66176;BME280;52977;44.816;20.538;2022-11-03T04:56:47;100536.31;;;12.08;100.00
66176;BME280;52977;44.816;20.538;2022-11-03T04:59:14;100541.97;;;12.12;100.00
66176;BME280;52977;44.816;20.538;2022-11-03T05:01:42;100493.09;;;11.74;100.00
66176;BME280;52977;44.816;20.538;2022-11-03T05:04:14;100525.66;;;12.07;100.00
66176;BME280;52977;44.816;20.538;2022-11-03T05:06:48;100506.00;;;11.82;100.00
66176;BME280;52977;44.816;20.538;2022-11-03T05:09:23;100534.19;;;12.05;100.00
66176;BME280;52977;44.816;20.538;2022-11-03T05:11:49;100516.88;;;11.73;100.00
66176;BME280;52977;44.816;20.538;2022-11-03T05:14:21;100528.44;;;11.93;100.00
66176;BME280;52977;44.816;20.538;2022-11-03T05:16:49;100529.53;;;12.06;100.00
66176;BME280;52977;44.816;20.538;2022-11-03T05:19:29;100526.97;;;12.09;100.00
66176;BME280;52977;44.816;20.538;2022-11-03T05:21:59;100527.84;;;12.19;100.00
66176;BME280;52977;44.816;20.538;2022-11-03T05:24:26;100527.22;;;12.22;100.00
66176;BME280;52977;44.816;20.538;2022-11-03T05:26:55;100481.84;;;11.98;100.00
66176;BME280;52977;44.816;20.538;2022-11-03T05:29:35;100523.25;;;12.28;100.00
66176;BME280;52977;44.816;20.538;2022-11-03T05:32:02;100528.66;;;12.19;100.00
66176;BME280;52977;44.816;20.538;2022-11-03T05:39:40;100533.16;;;11.78;100.00
66176;BME280;52977;44.816;20.538;2022-11-03T05:42:38;100550.13;;;11.67;100.00
66176;BME280;52977;44.816;20.538;2022-11-03T05:45:33;100513.34;;;11.36;100.00
66176;BME280;52977;44.816;20.538;2022-11-03T05:48:01;100543.63;;;11.76;100.00
66176;BME280;52977;44.816;20.538;2022-11-03T05:50:32;100518.16;;;11.53;100.00
66176;BME280;52977;44.816;20.538;2022-11-03T05:55:30;100547.50;;;11.61;100.00
66176;BME280;52977;44.816;20.538;2022-11-03T05:58:01;100552.34;;;11.65;100.00
66176;BME280;52977;44.816;20.538;2022-11-03T06:00:32;100532.22;;;11.60;100.00
66176;BME280;52977;44.816;20.538;2022-11-03T06:02:59;100556.94;;;11.92;100.00
66176;BME280;52977;44.816;20.538;2022-11-03T06:05:26;100559.25;;;11.99;100.00
66176;BME280;52977;44.816;20.538;2022-11-03T06:07:54;100559.00;;;11.86;100.00
66176;BME280;52977;44.816;20.538;2022-11-03T06:10:30;100565.25;;;11.87;100.00
66176;BME280;52977;44.816;20.538;2022-11-03T06:13:11;100509.53;;;11.60;100.00
66176;BME280;52977;44.816;20.538;2022-11-03T06:15:41;100561.44;;;12.10;100.00
66176;BME280;52977;44.816;20.538;2022-11-03T06:18:21;100535.38;;;12.13;100.00
66176;BME280;52977;44.816;20.538;2022-11-03T06:20:51;100540.59;;;12.23;100.00
66176;BME280;52977;44.816;20.538;2022-11-03T06:23:17;100497.78;;;11.96;100.00
66176;BME280;52977;44.816;20.538;2022-11-03T06:25:45;100551.47;;;12.37;100.00
66176;BME280;52977;44.816;20.538;2022-11-03T06:28:20;100550.97;;;12.35;100.00
66176;BME280;52977;44.816;20.538;2022-11-03T06:30:47;100497.44;;;11.75;100.00
66176;BME280;52977;44.816;20.538;2022-11-03T06:33:18;100552.69;;;11.86;100.00
66176;BME280;52977;44.816;20.538;2022-11-03T06:35:48;100566.69;;;11.84;100.00
66176;BME280;52977;44.816;20.538;2022-11-03T06:38:22;100541.31;;;11.92;100.00
66176;BME280;52977;44.816;20.538;2022-11-03T06:40:50;100497.13;;;11.76;100.00
66176;BME280;52977;44.816;20.538;2022-11-03T06:43:22;100551.38;;;12.20;100.00
66176;BME280;52977;44.816;20.538;2022-11-03T06:45:53;100568.31;;;12.30;100.00
66176;BME280;52977;44.816;20.538;2022-11-03T06:48:22;100569.16;;;12.31;100.00
66176;BME280;52977;44.816;20.538;2022-11-03T06:50:49;100559.03;;;12.40;100.00
66176;BME280;52977;44.816;20.538;2022-11-03T06:53:24;100565.38;;;12.50;100.00
66176;BME280;52977;44.816;20.538;2022-11-03T06:55:51;100537.31;;;12.44;100.00
66176;BME280;52977;44.816;20.538;2022-11-03T06:58:30;100568.69;;;12.69;100.00
66176;BME280;52977;44.816;20.538;2022-11-03T07:01:24;100561.44;;;12.64;100.00
66176;BME280;52977;44.816;20.538;2022-11-03T07:03:56;100579.03;;;12.72;100.00
66176;BME280;52977;44.816;20.538;2022-11-03T07:06:29;100579.88;;;12.50;100.00
66176;BME280;52977;44.816;20.538;2022-11-03T07:09:02;100576.22;;;12.09;100.00
66176;BME280;52977;44.816;20.538;2022-11-03T07:11:33;100578.59;;;12.02;100.00
66176;BME280;52977;44.816;20.538;2022-11-03T07:14:37;100570.06;;;12.04;100.00
66176;BME280;52977;44.816;20.538;2022-11-03T07:17:14;100541.38;;;11.78;100.00
66176;BME280;52977;44.816;20.538;2022-11-03T07:19:44;100561.81;;;11.95;100.00
66176;BME280;52977;44.816;20.538;2022-11-03T07:24:41;100546.34;;;11.76;100.00
66176;BME280;52977;44.816;20.538;2022-11-03T07:29:42;100569.56;;;11.65;100.00
66176;BME280;52977;44.816;20.538;2022-11-03T07:32:18;100549.75;;;11.45;100.00
66176;BME280;52977;44.816;20.538;2022-11-03T07:34:46;100573.66;;;11.90;100.00
66176;BME280;52977;44.816;20.538;2022-11-03T07:37:19;100559.06;;;12.18;100.00
66176;BME280;52977;44.816;20.538;2022-11-03T07:39:45;100522.16;;;11.92;100.00
66176;BME280;52977;44.816;20.538;2022-11-03T07:42:14;100552.25;;;11.92;100.00
66176;BME280;52977;44.816;20.538;2022-11-03T07:44:43;100509.91;;;11.44;100.00
66176;BME280;52977;44.816;20.538;2022-11-03T07:47:14;100563.97;;;12.07;100.00
66176;BME280;52977;44.816;20.538;2022-11-03T07:49:43;100488.53;;;11.69;100.00
66176;BME280;52977;44.816;20.538;2022-11-03T07:52:14;100542.09;;;11.70;100.00
66176;BME280;52977;44.816;20.538;2022-11-03T07:54:41;100526.69;;;11.52;100.00
66176;BME280;52977;44.816;20.538;2022-11-03T07:59:45;100542.66;;;11.95;100.00
66176;BME280;52977;44.816;20.538;2022-11-03T08:02:31;100541.50;;;12.10;100.00
66176;BME280;52977;44.816;20.538;2022-11-03T08:04:59;100493.94;;;11.83;100.00
66176;BME280;52977;44.816;20.538;2022-11-03T08:07:26;100526.97;;;11.87;100.00
66176;BME280;52977;44.816;20.538;2022-11-03T08:09:53;100515.31;;;11.95;100.00
66176;BME280;52977;44.816;20.538;2022-11-03T08:12:20;100409.84;;;11.43;100.00
66176;BME280;52977;44.816;20.538;2022-11-03T08:14:46;100514.97;;;12.19;100.00
66176;BME280;52977;44.816;20.538;2022-11-03T08:17:12;100507.19;;;12.12;100.00
66176;BME280;52977;44.816;20.538;2022-11-03T08:19:39;100504.97;;;12.14;100.00
66176;BME280;52977;44.816;20.538;2022-11-03T08:22:06;100493.03;;;12.10;100.00
66176;BME280;52977;44.816;20.538;2022-11-03T08:24:32;100493.38;;;12.18;100.00
66176;BME280;52977;44.816;20.538;2022-11-03T08:26:58;100423.53;;;11.43;100.00
66176;BME280;52977;44.816;20.538;2022-11-03T08:29:24;100509.38;;;12.24;100.00
66176;BME280;52977;44.816;20.538;2022-11-03T08:31:53;100439.06;;;11.79;100.00
66176;BME280;52977;44.816;20.538;2022-11-03T08:34:19;100496.66;;;12.28;100.00
66176;BME280;52977;44.816;20.538;2022-11-03T08:36:45;100498.81;;;12.40;100.00
66176;BME280;52977;44.816;20.538;2022-11-03T08:39:11;100490.34;;;12.51;100.00
66176;BME280;52977;44.816;20.538;2022-11-03T08:41:37;100465.19;;;12.48;100.00
66176;BME280;52977;44.816;20.538;2022-11-03T08:44:04;100479.06;;;12.52;100.00
66176;BME280;52977;44.816;20.538;2022-11-03T08:46:31;100491.31;;;12.55;100.00
66176;BME280;52977;44.816;20.538;2022-11-03T08:48:57;100465.84;;;12.14;100.00
66176;BME280;52977;44.816;20.538;2022-11-03T08:51:23;100443.38;;;11.94;100.00
66176;BME280;52977;44.816;20.538;2022-11-03T08:53:49;100477.88;;;12.04;100.00
66176;BME280;52977;44.816;20.538;2022-11-03T08:56:19;100489.66;;;12.13;100.00
66176;BME280;52977;44.816;20.538;2022-11-03T08:58:46;100489.19;;;12.11;100.00
66176;BME280;52977;44.816;20.538;2022-11-03T09:01:13;100492.66;;;12.35;100.00
66176;BME280;52977;44.816;20.538;2022-11-03T09:03:40;100457.72;;;12.40;100.00
66176;BME280;52977;44.816;20.538;2022-11-03T09:06:06;100487.19;;;12.75;100.00
66176;BME280;52977;44.816;20.538;2022-11-03T09:08:33;100498.03;;;12.48;100.00
66176;BME280;52977;44.816;20.538;2022-11-03T09:10:59;100494.78;;;12.38;100.00
66176;BME280;52977;44.816;20.538;2022-11-03T09:13:25;100446.75;;;11.77;100.00
66176;BME280;52977;44.816;20.538;2022-11-03T09:15:51;100487.66;;;12.05;100.00
66176;BME280;52977;44.816;20.538;2022-11-03T09:18:17;100457.75;;;11.63;100.00
66176;BME280;52977;44.816;20.538;2022-11-03T09:20:44;100491.56;;;11.68;100.00
66176;BME280;52977;44.816;20.538;2022-11-03T09:23:10;100491.81;;;11.57;100.00
66176;BME280;52977;44.816;20.538;2022-11-03T09:25:36;100497.28;;;11.57;100.00
66176;BME280;52977;44.816;20.538;2022-11-03T09:28:03;100441.66;;;11.39;100.00
66176;BME280;52977;44.816;20.538;2022-11-03T09:30:29;100459.63;;;11.32;100.00
66176;BME280;52977;44.816;20.538;2022-11-03T09:32:56;100485.25;;;11.58;100.00
66176;BME280;52977;44.816;20.538;2022-11-03T09:35:22;100483.41;;;11.31;100.00
66176;BME280;52977;44.816;20.538;2022-11-03T09:37:48;100487.88;;;11.50;100.00
66176;BME280;52977;44.816;20.538;2022-11-03T09:40:15;100485.94;;;11.64;100.00
66176;BME280;52977;44.816;20.538;2022-11-03T09:42:42;100451.97;;;11.42;100.00
66176;BME280;52977;44.816;20.538;2022-11-03T09:45:09;100458.22;;;11.57;100.00
66176;BME280;52977;44.816;20.538;2022-11-03T09:47:38;100418.63;;;11.32;100.00
66176;BME280;52977;44.816;20.538;2022-11-03T09:50:12;100429.63;;;11.63;100.00
66176;BME280;52977;44.816;20.538;2022-11-03T09:52:39;100473.41;;;11.72;100.00
66176;BME280;52977;44.816;20.538;2022-11-03T09:55:12;100463.41;;;11.44;100.00
66176;BME280;52977;44.816;20.538;2022-11-03T09:57:40;100470.31;;;11.42;100.00
66176;BME280;52977;44.816;20.538;2022-11-03T10:00:12;100460.31;;;11.60;100.00
66176;BME280;52977;44.816;20.538;2022-11-03T10:02:40;100478.88;;;11.72;100.00
66176;BME280;52977;44.816;20.538;2022-11-03T10:05:11;100466.53;;;11.52;100.00
66176;BME280;52977;44.816;20.538;2022-11-03T10:07:38;100470.63;;;11.40;100.00
66176;BME280;52977;44.816;20.538;2022-11-03T10:10:05;100448.38;;;11.33;100.00
66176;BME280;52977;44.816;20.538;2022-11-03T10:12:35;100466.53;;;11.52;100.00
66176;BME280;52977;44.816;20.538;2022-11-03T10:15:02;100465.78;;;11.37;100.00
66176;BME280;52977;44.816;20.538;2022-11-03T10:17:29;100387.19;;;10.84;100.00
66176;BME280;52977;44.816;20.538;2022-11-03T10:23:19;100410.06;;;11.10;100.00
66176;BME280;52977;44.816;20.538;2022-11-03T10:25:45;100437.59;;;11.14;100.00
66176;BME280;52977;44.816;20.538;2022-11-03T10:28:25;100420.63;;;11.26;100.00
66176;BME280;52977;44.816;20.538;2022-11-03T10:30:59;100451.50;;;11.40;100.00
66176;BME280;52977;44.816;20.538;2022-11-03T10:35:56;100452.16;;;11.23;100.00
66176;BME280;52977;44.816;20.538;2022-11-03T10:40:53;100441.91;;;11.29;100.00
66176;BME280;52977;44.816;20.538;2022-11-03T10:43:20;100403.88;;;11.19;100.00
66176;BME280;52977;44.816;20.538;2022-11-03T10:45:46;100412.41;;;11.03;100.00
66176;BME280;52977;44.816;20.538;2022-11-03T10:48:14;100379.63;;;11.03;100.00
66176;BME280;52977;44.816;20.538;2022-11-03T10:50:41;100378.78;;;10.94;100.00
66176;BME280;52977;44.816;20.538;2022-11-03T10:53:18;100377.69;;;11.18;100.00
66176;BME280;52977;44.816;20.538;2022-11-03T10:55:45;100419.91;;;11.79;100.00
66176;BME280;52977;44.816;20.538;2022-11-03T10:58:12;100395.72;;;11.73;100.00
66176;BME280;52977;44.816;20.538;2022-11-03T11:00:40;100393.63;;;11.70;100.00
66176;BME280;52977;44.816;20.538;2022-11-03T11:03:09;100392.13;;;11.63;100.00
66176;BME280;52977;44.816;20.538;2022-11-03T11:05:43;100393.31;;;11.71;100.00
66176;BME280;52977;44.816;20.538;2022-11-03T11:08:10;100412.78;;;11.70;100.00
66176;BME280;52977;44.816;20.538;2022-11-03T11:10:35;100406.09;;;11.85;100.00
66176;BME280;52977;44.816;20.538;2022-11-03T11:13:27;100389.50;;;11.81;100.00
66176;BME280;52977;44.816;20.538;2022-11-03T11:15:59;100377.63;;;11.86;100.00
66176;BME280;52977;44.816;20.538;2022-11-03T11:20:59;100400.44;;;11.81;100.00
66176;BME280;52977;44.816;20.538;2022-11-03T11:28:41;100323.94;;;11.67;100.00
66176;BME280;52977;44.816;20.538;2022-11-03T11:42:13;100330.47;;;11.49;100.00
66176;BME280;52977;44.816;20.538;2022-11-03T11:52:43;100362.69;;;11.92;100.00
66176;BME280;52977;44.816;20.538;2022-11-03T11:58:03;100346.69;;;11.76;100.00
66176;BME280;52977;44.816;20.538;2022-11-03T12:00:33;100324.34;;;11.52;100.00
66176;BME280;52977;44.816;20.538;2022-11-03T12:03:01;100332.69;;;11.78;100.00
66176;BME280;52977;44.816;20.538;2022-11-03T12:05:33;100319.06;;;11.55;100.00
66176;BME280;52977;44.816;20.538;2022-11-03T12:08:00;100341.03;;;11.41;100.00
66176;BME280;52977;44.816;20.538;2022-11-03T12:10:30;100302.22;;;11.31;100.00
66176;BME280;52977;44.816;20.538;2022-11-03T12:12:58;100278.69;;;11.21;100.00
66176;BME280;52977;44.816;20.538;2022-11-03T12:15:56;100316.75;;;11.80;100.00
66176;BME280;52977;44.816;20.538;2022-11-03T12:18:34;100319.25;;;11.90;100.00
66176;BME280;52977;44.816;20.538;2022-11-03T12:21:03;100307.38;;;11.95;100.00
66176;BME280;52977;44.816;20.538;2022-11-03T12:25:59;100309.28;;;11.63;100.00
66176;BME280;52977;44.816;20.538;2022-11-03T12:28:35;100292.84;;;11.54;100.00
66176;BME280;52977;44.816;20.538;2022-11-03T12:31:03;100297.56;;;11.62;100.00
66176;BME280;52977;44.816;20.538;2022-11-03T12:33:30;100276.66;;;11.67;100.00
66176;BME280;52977;44.816;20.538;2022-11-03T12:35:56;100240.09;;;11.54;100.00
66176;BME280;52977;44.816;20.538;2022-11-03T12:38:24;100255.13;;;11.74;100.00
66176;BME280;52977;44.816;20.538;2022-11-03T12:40:50;100254.03;;;11.84;100.00
66176;BME280;52977;44.816;20.538;2022-11-03T12:43:18;100236.06;;;11.51;100.00
66176;BME280;52977;44.816;20.538;2022-11-03T12:45:45;100231.88;;;11.54;100.00
66176;BME280;52977;44.816;20.538;2022-11-03T12:48:11;100227.88;;;11.51;100.00
66176;BME280;52977;44.816;20.538;2022-11-03T12:50:37;100253.06;;;11.88;100.00
66176;BME280;52977;44.816;20.538;2022-11-03T12:53:04;100207.03;;;11.73;100.00
66176;BME280;52977;44.816;20.538;2022-11-03T12:55:33;100208.56;;;11.96;100.00
66176;BME280;52977;44.816;20.538;2022-11-03T12:57:59;100223.00;;;11.88;100.00
66176;BME280;52977;44.816;20.538;2022-11-03T13:00:25;100222.84;;;11.85;100.00
66176;BME280;52977;44.816;20.538;2022-11-03T13:02:52;100220.38;;;11.74;100.00
66176;BME280;52977;44.816;20.538;2022-11-03T13:05:18;100176.09;;;11.63;100.00
66176;BME280;52977;44.816;20.538;2022-11-03T13:07:44;100118.94;;;11.36;100.00
66176;BME280;52977;44.816;20.538;2022-11-03T13:10:10;100191.94;;;11.93;100.00
66176;BME280;52977;44.816;20.538;2022-11-03T13:12:37;100171.06;;;11.97;100.00
66176;BME280;52977;44.816;20.538;2022-11-03T13:15:07;100191.81;;;12.07;100.00
66176;BME280;52977;44.816;20.538;2022-11-03T13:17:33;100197.47;;;12.10;100.00
66176;BME280;52977;44.816;20.538;2022-11-03T13:19:59;100142.22;;;11.82;100.00
66176;BME280;52977;44.816;20.538;2022-11-03T13:22:25;100185.72;;;12.27;100.00
66176;BME280;52977;44.816;20.538;2022-11-03T13:24:51;100180.56;;;12.35;100.00
66176;BME280;52977;44.816;20.538;2022-11-03T13:27:17;100114.59;;;12.10;100.00
66176;BME280;52977;44.816;20.538;2022-11-03T13:29:44;100164.31;;;12.38;100.00
66176;BME280;52977;44.816;20.538;2022-11-03T13:32:10;100153.84;;;12.49;100.00
66176;BME280;52977;44.816;20.538;2022-11-03T13:34:36;100160.44;;;12.57;100.00
66176;BME280;52977;44.816;20.538;2022-11-03T13:37:02;100173.88;;;12.97;100.00
66176;BME280;52977;44.816;20.538;2022-11-03T13:39:29;100142.63;;;12.98;100.00
66176;BME280;52977;44.816;20.538;2022-11-03T13:41:54;100120.63;;;12.77;100.00
66176;BME280;52977;44.816;20.538;2022-11-03T13:44:21;100126.44;;;12.58;100.00
66176;BME280;52977;44.816;20.538;2022-11-03T13:46:47;100096.88;;;12.34;100.00
66176;BME280;52977;44.816;20.538;2022-11-03T13:49:14;100157.66;;;12.83;100.00
66176;BME280;52977;44.816;20.538;2022-11-03T13:51:40;100160.94;;;12.59;100.00
66176;BME280;52977;44.816;20.538;2022-11-03T13:54:07;100164.28;;;12.73;100.00
66176;BME280;52977;44.816;20.538;2022-11-03T13:56:33;100129.97;;;12.58;100.00
66176;BME280;52977;44.816;20.538;2022-11-03T13:58:59;100155.22;;;12.81;100.00